Hachinohe Air Base, Japan

9:28 AM JST on July 02, 2015 (GMT +0900)
Misawa AB | | Change Station
CLOSE
Current Station
Personal Weather Station
Location: Misawa-shi, AOMORI-KEN
Elevation: 141 ft
Nearby Weather Stations

Elev 141 ft 40.69 °N, 141.36 °E | Updated 45 seconds ago

Scattered Clouds
Scattered Clouds
71.8 °F
Feels Like 76 °F
N
2.7
Wind Variable Wind from East
Gusts 4.9 mph

Today
High -- | Low -- °F
--% Chance of Precip.
Yesterday
High -- | Low -- °F
Precip. -- in
4:07 AM 7:08 PM
Full, 100% visible
Pressure 29.50 in
Visibility 6.2 miles
Clouds Few 3000 ft
Scattered Clouds 4000 ft
Heat Index 76 °F
Dew Point 59 °F
Humidity 63%
Rainfall 0.00 in
Snow Depth Not available.
UV 4.0 out of 12
Pollen Not available.
Air Quality Not available.
Flu Activity Not available.
METAR RJSA 020000Z 21011KT 9999 FEW030 SCT040 22/14 Q0999

More Conditions Fewer Conditions

Pressure 29.50 in
Visibility 6.2 miles
Clouds Few 3000 ft
Scattered Clouds 4000 ft
Heat Index 76 °F
Dew Point 59 °F
Humidity 63%
Rainfall 0.00 in
Snow Depth Not available.
UV 4.0 out of 12
Pollen Not available.
Air Quality Not available.
Flu Activity Not available.
METAR RJSA 020000Z 21011KT 9999 FEW030 SCT040 22/14 Q0999

More Conditions Fewer Conditions

10-Day Weather Forecast

×

Almanac

Astronomy

Jul. 02, 2015 Rise Set
Actual Time
Civil Twilight
Nautical Twilight
Astronomical Twilight
Moon
Length of Visible Light
Length of Day
Tomorrow will be .
, % of the Moon is Illuminated

Today's Extremes

Country Highs Country Lows

Community

WunderPhotos

Upload Photos

1,834,354 photos uploaded!

WunderBlogs® & News

Nearby

Air Quality

  Air Quality AQ Index Pollutant
Not available.

Snow Depth

Station Depth Elevation

Earthquake Activity

City Distance Mag. Time & Date
Minimum magnitude displayed is 2.5.

Coastal Water Temperatures

Place Temperature

Stations

Nearby Weather Stations

Station Location Temp. Windchill Dew Point Humidity Wind Precip. Elev Updated Type